sensor_id;sensor_type;location;lat;lon;timestamp;temperature;humidity
48589;DHT22;34369;51.174;6.738;2023-02-15T00:02:17;3.30;63.30
48589;DHT22;34369;51.174;6.738;2023-02-15T00:04:50;3.20;63.40
48589;DHT22;34369;51.174;6.738;2023-02-15T00:07:22;3.20;63.40
48589;DHT22;34369;51.174;6.738;2023-02-15T00:09:54;3.20;63.40
48589;DHT22;34369;51.174;6.738;2023-02-15T00:12:27;3.10;63.50
48589;DHT22;34369;51.174;6.738;2023-02-15T00:14:59;3.10;63.60
48589;DHT22;34369;51.174;6.738;2023-02-15T00:17:30;3.10;63.60
48589;DHT22;34369;51.174;6.738;2023-02-15T00:20:02;3.00;63.60
48589;DHT22;34369;51.174;6.738;2023-02-15T00:22:35;3.00;63.60
48589;DHT22;34369;51.174;6.738;2023-02-15T00:25:07;3.00;63.80
48589;DHT22;34369;51.174;6.738;2023-02-15T00:27:40;3.00;63.90
48589;DHT22;34369;51.174;6.738;2023-02-15T00:30:12;2.90;64.00
48589;DHT22;34369;51.174;6.738;2023-02-15T00:32:47;2.90;64.00
48589;DHT22;34369;51.174;6.738;2023-02-15T00:35:19;2.80;64.10
48589;DHT22;34369;51.174;6.738;2023-02-15T00:37:51;2.80;64.20
48589;DHT22;34369;51.174;6.738;2023-02-15T00:40:23;2.80;64.20
48589;DHT22;34369;51.174;6.738;2023-02-15T00:42:57;2.80;64.30
48589;DHT22;34369;51.174;6.738;2023-02-15T00:45:29;2.80;64.40
48589;DHT22;34369;51.174;6.738;2023-02-15T00:48:01;2.80;64.40
48589;DHT22;34369;51.174;6.738;2023-02-15T00:50:32;2.80;64.30
48589;DHT22;34369;51.174;6.738;2023-02-15T00:53:04;2.80;64.40
48589;DHT22;34369;51.174;6.738;2023-02-15T00:55:37;2.80;64.50
48589;DHT22;34369;51.174;6.738;2023-02-15T00:58:12;2.80;64.40
48589;DHT22;34369;51.174;6.738;2023-02-15T01:00:46;2.80;64.40
48589;DHT22;34369;51.174;6.738;2023-02-15T01:03:20;2.80;64.50
48589;DHT22;34369;51.174;6.738;2023-02-15T01:05:52;2.80;64.60
48589;DHT22;34369;51.174;6.738;2023-02-15T01:08:24;2.80;64.60
48589;DHT22;34369;51.174;6.738;2023-02-15T01:10:56;2.80;64.60
48589;DHT22;34369;51.174;6.738;2023-02-15T01:13:29;2.80;64.70
48589;DHT22;34369;51.174;6.738;2023-02-15T01:16:02;2.80;64.80
48589;DHT22;34369;51.174;6.738;2023-02-15T01:18:35;2.80;64.70
48589;DHT22;34369;51.174;6.738;2023-02-15T01:21:11;2.70;64.80
48589;DHT22;34369;51.174;6.738;2023-02-15T01:23:45;2.80;64.80
48589;DHT22;34369;51.174;6.738;2023-02-15T01:26:17;2.70;64.80
48589;DHT22;34369;51.174;6.738;2023-02-15T01:28:50;2.70;64.80
48589;DHT22;34369;51.174;6.738;2023-02-15T01:31:22;2.70;64.70
48589;DHT22;34369;51.174;6.738;2023-02-15T01:33:54;2.70;64.70
48589;DHT22;34369;51.174;6.738;2023-02-15T01:36:26;2.70;64.70
48589;DHT22;34369;51.174;6.738;2023-02-15T01:38:58;2.70;64.70
48589;DHT22;34369;51.174;6.738;2023-02-15T01:41:32;2.60;64.70
48589;DHT22;34369;51.174;6.738;2023-02-15T01:47:22;2.60;65.10
48589;DHT22;34369;51.174;6.738;2023-02-15T01:50:02;2.60;64.80
48589;DHT22;34369;51.174;6.738;2023-02-15T01:52:40;2.60;64.80
48589;DHT22;34369;51.174;6.738;2023-02-15T01:55:14;2.60;64.80
48589;DHT22;34369;51.174;6.738;2023-02-15T01:57:46;2.60;64.70
48589;DHT22;34369;51.174;6.738;2023-02-15T02:00:20;2.50;64.80
48589;DHT22;34369;51.174;6.738;2023-02-15T02:02:55;2.50;64.90
48589;DHT22;34369;51.174;6.738;2023-02-15T02:05:29;2.50;64.90
48589;DHT22;34369;51.174;6.738;2023-02-15T02:08:02;2.50;65.00
48589;DHT22;34369;51.174;6.738;2023-02-15T02:10:34;2.50;65.00
48589;DHT22;34369;51.174;6.738;2023-02-15T02:13:06;2.50;65.00
48589;DHT22;34369;51.174;6.738;2023-02-15T02:15:46;2.50;65.00
48589;DHT22;34369;51.174;6.738;2023-02-15T02:18:32;2.40;65.20
48589;DHT22;34369;51.174;6.738;2023-02-15T02:21:19;2.40;65.30
48589;DHT22;34369;51.174;6.738;2023-02-15T02:24:37;2.40;65.50
48589;DHT22;34369;51.174;6.738;2023-02-15T02:27:29;2.40;65.20
48589;DHT22;34369;51.174;6.738;2023-02-15T02:30:34;2.40;65.10
48589;DHT22;34369;51.174;6.738;2023-02-15T02:33:39;2.20;65.20
48589;DHT22;34369;51.174;6.738;2023-02-15T02:36:24;2.20;65.00
48589;DHT22;34369;51.174;6.738;2023-02-15T02:39:11;2.20;64.90
48589;DHT22;34369;51.174;6.738;2023-02-15T02:41:56;2.20;65.00
48589;DHT22;34369;51.174;6.738;2023-02-15T02:44:38;2.10;65.10
48589;DHT22;34369;51.174;6.738;2023-02-15T02:47:19;2.10;64.80
48589;DHT22;34369;51.174;6.738;2023-02-15T02:50:00;2.00;65.00
48589;DHT22;34369;51.174;6.738;2023-02-15T02:52:39;2.00;65.10
48589;DHT22;34369;51.174;6.738;2023-02-15T02:55:16;2.00;65.10
48589;DHT22;34369;51.174;6.738;2023-02-15T02:57:55;1.90;65.10
48589;DHT22;34369;51.174;6.738;2023-02-15T03:00:34;1.90;65.10
48589;DHT22;34369;51.174;6.738;2023-02-15T03:03:11;1.90;65.30
48589;DHT22;34369;51.174;6.738;2023-02-15T03:05:47;1.80;65.30
48589;DHT22;34369;51.174;6.738;2023-02-15T03:08:27;1.80;65.50
48589;DHT22;34369;51.174;6.738;2023-02-15T03:11:04;1.70;65.60
48589;DHT22;34369;51.174;6.738;2023-02-15T03:13:36;1.70;65.70
48589;DHT22;34369;51.174;6.738;2023-02-15T03:16:09;1.70;65.80
48589;DHT22;34369;51.174;6.738;2023-02-15T03:19:00;1.60;66.00
48589;DHT22;34369;51.174;6.738;2023-02-15T03:21:37;1.60;66.10
48589;DHT22;34369;51.174;6.738;2023-02-15T03:24:13;1.60;66.10
48589;DHT22;34369;51.174;6.738;2023-02-15T03:26:49;1.60;66.20
48589;DHT22;34369;51.174;6.738;2023-02-15T03:29:24;1.60;66.50
48589;DHT22;34369;51.174;6.738;2023-02-15T03:31:59;1.50;66.50
48589;DHT22;34369;51.174;6.738;2023-02-15T03:34:32;1.60;66.40
48589;DHT22;34369;51.174;6.738;2023-02-15T03:37:10;1.50;66.50
48589;DHT22;34369;51.174;6.738;2023-02-15T03:39:48;1.50;66.80
48589;DHT22;34369;51.174;6.738;2023-02-15T03:42:27;1.50;66.70
48589;DHT22;34369;51.174;6.738;2023-02-15T03:45:01;1.50;66.80
48589;DHT22;34369;51.174;6.738;2023-02-15T03:47:38;1.60;67.20
48589;DHT22;34369;51.174;6.738;2023-02-15T03:50:15;1.50;66.50
48589;DHT22;34369;51.174;6.738;2023-02-15T03:53:11;1.60;66.40
48589;DHT22;34369;51.174;6.738;2023-02-15T03:55:46;1.60;66.50
48589;DHT22;34369;51.174;6.738;2023-02-15T03:58:18;1.60;66.30
48589;DHT22;34369;51.174;6.738;2023-02-15T04:01:26;1.60;66.50
48589;DHT22;34369;51.174;6.738;2023-02-15T04:04:20;1.60;66.30
48589;DHT22;34369;51.174;6.738;2023-02-15T04:06:53;1.60;66.00
48589;DHT22;34369;51.174;6.738;2023-02-15T04:09:26;1.60;66.20
48589;DHT22;34369;51.174;6.738;2023-02-15T04:12:16;1.50;66.20
48589;DHT22;34369;51.174;6.738;2023-02-15T04:14:48;1.50;66.20
48589;DHT22;34369;51.174;6.738;2023-02-15T04:17:38;1.50;66.20
48589;DHT22;34369;51.174;6.738;2023-02-15T04:20:10;1.40;66.30
48589;DHT22;34369;51.174;6.738;2023-02-15T04:23:00;1.40;66.30
48589;DHT22;34369;51.174;6.738;2023-02-15T04:25:51;1.40;66.30
48589;DHT22;34369;51.174;6.738;2023-02-15T04:28:23;1.40;66.00
48589;DHT22;34369;51.174;6.738;2023-02-15T04:30:55;1.40;66.20
48589;DHT22;34369;51.174;6.738;2023-02-15T04:33:27;1.30;66.20
48589;DHT22;34369;51.174;6.738;2023-02-15T04:35:59;1.20;66.10
48589;DHT22;34369;51.174;6.738;2023-02-15T04:38:31;1.20;66.20
48589;DHT22;34369;51.174;6.738;2023-02-15T04:41:04;1.20;66.10
48589;DHT22;34369;51.174;6.738;2023-02-15T04:43:36;1.20;66.20
48589;DHT22;34369;51.174;6.738;2023-02-15T04:46:08;1.10;66.40
48589;DHT22;34369;51.174;6.738;2023-02-15T04:48:40;1.10;66.60
48589;DHT22;34369;51.174;6.738;2023-02-15T04:51:12;1.00;66.80
48589;DHT22;34369;51.174;6.738;2023-02-15T04:53:43;1.00;66.70
48589;DHT22;34369;51.174;6.738;2023-02-15T04:56:17;1.00;66.70
48589;DHT22;34369;51.174;6.738;2023-02-15T04:58:49;1.00;67.00
48589;DHT22;34369;51.174;6.738;2023-02-15T05:01:21;1.00;67.20
48589;DHT22;34369;51.174;6.738;2023-02-15T05:03:52;1.00;67.00
48589;DHT22;34369;51.174;6.738;2023-02-15T05:06:25;1.00;67.10
48589;DHT22;34369;51.174;6.738;2023-02-15T05:08:57;1.00;66.90
48589;DHT22;34369;51.174;6.738;2023-02-15T05:11:31;1.00;67.00
48589;DHT22;34369;51.174;6.738;2023-02-15T05:14:03;1.00;67.20
48589;DHT22;34369;51.174;6.738;2023-02-15T05:16:35;1.00;67.00
48589;DHT22;34369;51.174;6.738;2023-02-15T05:19:06;1.00;66.90
48589;DHT22;34369;51.174;6.738;2023-02-15T05:21:39;1.00;67.10
48589;DHT22;34369;51.174;6.738;2023-02-15T05:24:11;1.00;67.20
48589;DHT22;34369;51.174;6.738;2023-02-15T05:27:02;1.10;67.00
48589;DHT22;34369;51.174;6.738;2023-02-15T05:29:51;1.00;67.20
48589;DHT22;34369;51.174;6.738;2023-02-15T05:32:23;1.10;67.00
48589;DHT22;34369;51.174;6.738;2023-02-15T05:34:55;1.10;67.20
48589;DHT22;34369;51.174;6.738;2023-02-15T05:37:27;1.10;67.30
48589;DHT22;34369;51.174;6.738;2023-02-15T05:39:58;1.10;67.20
48589;DHT22;34369;51.174;6.738;2023-02-15T05:42:32;1.10;67.30
48589;DHT22;34369;51.174;6.738;2023-02-15T05:45:05;1.10;67.50
48589;DHT22;34369;51.174;6.738;2023-02-15T05:47:37;1.10;67.30
48589;DHT22;34369;51.174;6.738;2023-02-15T05:50:09;1.10;67.30
48589;DHT22;34369;51.174;6.738;2023-02-15T05:52:42;1.10;67.40
48589;DHT22;34369;51.174;6.738;2023-02-15T05:55:14;1.10;67.30
48589;DHT22;34369;51.174;6.738;2023-02-15T05:57:48;1.20;67.30
48589;DHT22;34369;51.174;6.738;2023-02-15T06:00:20;1.20;67.30
48589;DHT22;34369;51.174;6.738;2023-02-15T06:02:52;1.20;67.20
48589;DHT22;34369;51.174;6.738;2023-02-15T06:05:24;1.20;67.20
48589;DHT22;34369;51.174;6.738;2023-02-15T06:07:56;1.20;67.30
48589;DHT22;34369;51.174;6.738;2023-02-15T06:10:28;1.20;67.10
48589;DHT22;34369;51.174;6.738;2023-02-15T06:13:01;1.20;67.10
48589;DHT22;34369;51.174;6.738;2023-02-15T06:15:33;1.20;67.10
48589;DHT22;34369;51.174;6.738;2023-02-15T06:18:05;1.30;66.90
48589;DHT22;34369;51.174;6.738;2023-02-15T06:20:37;1.20;66.80
48589;DHT22;34369;51.174;6.738;2023-02-15T06:23:09;1.20;66.90
48589;DHT22;34369;51.174;6.738;2023-02-15T06:25:42;1.20;66.90
48589;DHT22;34369;51.174;6.738;2023-02-15T06:28:16;1.20;66.80
48589;DHT22;34369;51.174;6.738;2023-02-15T06:30:48;1.20;66.70
48589;DHT22;34369;51.174;6.738;2023-02-15T06:33:21;1.10;66.70
48589;DHT22;34369;51.174;6.738;2023-02-15T06:35:53;1.10;66.60
48589;DHT22;34369;51.174;6.738;2023-02-15T06:38:26;1.10;66.60
48589;DHT22;34369;51.174;6.738;2023-02-15T06:40:58;1.10;66.70
48589;DHT22;34369;51.174;6.738;2023-02-15T06:43:31;1.00;66.90
48589;DHT22;34369;51.174;6.738;2023-02-15T06:46:04;1.00;66.70
48589;DHT22;34369;51.174;6.738;2023-02-15T06:48:36;1.00;66.60
48589;DHT22;34369;51.174;6.738;2023-02-15T06:51:14;1.00;66.60
48589;DHT22;34369;51.174;6.738;2023-02-15T06:54:02;1.00;66.80
48589;DHT22;34369;51.174;6.738;2023-02-15T06:56:34;1.00;66.60
48589;DHT22;34369;51.174;6.738;2023-02-15T06:59:08;1.00;66.50
48589;DHT22;34369;51.174;6.738;2023-02-15T07:01:40;1.00;66.90
48589;DHT22;34369;51.174;6.738;2023-02-15T07:04:12;1.00;67.10
48589;DHT22;34369;51.174;6.738;2023-02-15T07:06:45;1.00;67.10
48589;DHT22;34369;51.174;6.738;2023-02-15T07:09:17;1.00;67.20
48589;DHT22;34369;51.174;6.738;2023-02-15T07:11:53;1.00;67.20
48589;DHT22;34369;51.174;6.738;2023-02-15T07:14:44;1.00;67.20
48589;DHT22;34369;51.174;6.738;2023-02-15T07:17:16;1.00;67.30
48589;DHT22;34369;51.174;6.738;2023-02-15T07:19:50;1.00;67.50
48589;DHT22;34369;51.174;6.738;2023-02-15T07:22:22;1.00;67.30
48589;DHT22;34369;51.174;6.738;2023-02-15T07:24:54;1.00;67.30
48589;DHT22;34369;51.174;6.738;2023-02-15T07:27:27;1.00;67.50
48589;DHT22;34369;51.174;6.738;2023-02-15T07:30:01;1.10;67.60
48589;DHT22;34369;51.174;6.738;2023-02-15T07:32:33;1.10;68.00
48589;DHT22;34369;51.174;6.738;2023-02-15T07:35:06;1.20;68.60
48589;DHT22;34369;51.174;6.738;2023-02-15T07:37:38;1.40;68.70
48589;DHT22;34369;51.174;6.738;2023-02-15T07:40:11;1.50;68.70
48589;DHT22;34369;51.174;6.738;2023-02-15T07:42:46;1.70;68.40
48589;DHT22;34369;51.174;6.738;2023-02-15T07:45:20;1.90;68.00
48589;DHT22;34369;51.174;6.738;2023-02-15T07:47:53;2.00;67.60
48589;DHT22;34369;51.174;6.738;2023-02-15T07:50:25;2.20;67.20
48589;DHT22;34369;51.174;6.738;2023-02-15T07:52:58;2.50;67.00
48589;DHT22;34369;51.174;6.738;2023-02-15T07:55:30;2.60;66.60
48589;DHT22;34369;51.174;6.738;2023-02-15T07:58:02;2.80;66.30
48589;DHT22;34369;51.174;6.738;2023-02-15T08:00:36;2.90;66.00
48589;DHT22;34369;51.174;6.738;2023-02-15T08:03:23;3.00;65.50
48589;DHT22;34369;51.174;6.738;2023-02-15T08:05:58;3.10;65.20
48589;DHT22;34369;51.174;6.738;2023-02-15T08:08:33;3.20;65.00
48589;DHT22;34369;51.174;6.738;2023-02-15T08:11:13;3.30;65.20
48589;DHT22;34369;51.174;6.738;2023-02-15T08:14:08;3.40;65.20
48589;DHT22;34369;51.174;6.738;2023-02-15T08:16:43;3.70;65.00
48589;DHT22;34369;51.174;6.738;2023-02-15T08:19:18;3.80;64.40
48589;DHT22;34369;51.174;6.738;2023-02-15T08:21:53;4.00;63.80
48589;DHT22;34369;51.174;6.738;2023-02-15T08:24:29;4.10;63.50
48589;DHT22;34369;51.174;6.738;2023-02-15T08:27:02;4.20;63.40
48589;DHT22;34369;51.174;6.738;2023-02-15T08:29:36;4.40;63.90
48589;DHT22;34369;51.174;6.738;2023-02-15T08:32:12;4.50;63.70
48589;DHT22;34369;51.174;6.738;2023-02-15T08:34:44;4.70;63.60
48589;DHT22;34369;51.174;6.738;2023-02-15T08:37:16;5.00;63.40
48589;DHT22;34369;51.174;6.738;2023-02-15T08:39:49;5.30;63.20
48589;DHT22;34369;51.174;6.738;2023-02-15T08:42:22;5.50;62.60
48589;DHT22;34369;51.174;6.738;2023-02-15T08:44:55;5.80;62.20
48589;DHT22;34369;51.174;6.738;2023-02-15T08:47:28;6.10;62.50
48589;DHT22;34369;51.174;6.738;2023-02-15T08:50:00;6.50;61.70
48589;DHT22;34369;51.174;6.738;2023-02-15T08:52:32;6.80;60.80
48589;DHT22;34369;51.174;6.738;2023-02-15T08:55:05;7.10;59.90
48589;DHT22;34369;51.174;6.738;2023-02-15T08:57:38;7.30;59.20
48589;DHT22;34369;51.174;6.738;2023-02-15T09:00:16;7.60;59.00
48589;DHT22;34369;51.174;6.738;2023-02-15T09:02:53;7.90;58.60
48589;DHT22;34369;51.174;6.738;2023-02-15T09:05:25;8.20;58.60
48589;DHT22;34369;51.174;6.738;2023-02-15T09:07:57;8.50;58.20
48589;DHT22;34369;51.174;6.738;2023-02-15T09:10:29;8.80;57.00
48589;DHT22;34369;51.174;6.738;2023-02-15T09:13:02;9.00;56.50
48589;DHT22;34369;51.174;6.738;2023-02-15T09:15:34;9.20;55.70
48589;DHT22;34369;51.174;6.738;2023-02-15T09:18:07;9.40;55.70
48589;DHT22;34369;51.174;6.738;2023-02-15T09:20:39;9.50;54.50
48589;DHT22;34369;51.174;6.738;2023-02-15T09:23:11;9.60;54.50
48589;DHT22;34369;51.174;6.738;2023-02-15T09:25:44;9.70;53.90
48589;DHT22;34369;51.174;6.738;2023-02-15T09:28:17;9.80;53.30
48589;DHT22;34369;51.174;6.738;2023-02-15T09:30:49;9.90;52.70
48589;DHT22;34369;51.174;6.738;2023-02-15T09:33:22;9.80;52.20
48589;DHT22;34369;51.174;6.738;2023-02-15T09:35:55;9.80;51.50
48589;DHT22;34369;51.174;6.738;2023-02-15T09:38:28;9.70;51.40
48589;DHT22;34369;51.174;6.738;2023-02-15T09:41:19;9.50;51.20
48589;DHT22;34369;51.174;6.738;2023-02-15T09:44:16;9.40;51.20
48589;DHT22;34369;51.174;6.738;2023-02-15T09:47:12;9.40;51.20
48589;DHT22;34369;51.174;6.738;2023-02-15T09:50:04;9.20;51.20
48589;DHT22;34369;51.174;6.738;2023-02-15T09:56:00;9.00;51.40
48589;DHT22;34369;51.174;6.738;2023-02-15T09:58:44;9.00;51.60
48589;DHT22;34369;51.174;6.738;2023-02-15T10:01:26;8.80;51.30
48589;DHT22;34369;51.174;6.738;2023-02-15T10:04:24;8.70;51.40
48589;DHT22;34369;51.174;6.738;2023-02-15T10:07:27;8.60;51.40
48589;DHT22;34369;51.174;6.738;2023-02-15T10:10:19;8.40;51.70
48589;DHT22;34369;51.174;6.738;2023-02-15T10:13:04;8.30;51.90
48589;DHT22;34369;51.174;6.738;2023-02-15T10:15:56;8.20;52.20
48589;DHT22;34369;51.174;6.738;2023-02-15T10:18:51;8.10;52.20
48589;DHT22;34369;51.174;6.738;2023-02-15T10:21:39;8.00;52.60
48589;DHT22;34369;51.174;6.738;2023-02-15T10:27:27;7.90;52.80
48589;DHT22;34369;51.174;6.738;2023-02-15T10:30:08;7.90;53.10
48589;DHT22;34369;51.174;6.738;2023-02-15T10:32:52;7.90;53.10
48589;DHT22;34369;51.174;6.738;2023-02-15T10:35:32;7.90;52.90
48589;DHT22;34369;51.174;6.738;2023-02-15T10:38:20;8.00;53.40
48589;DHT22;34369;51.174;6.738;2023-02-15T10:41:09;8.00;53.30
48589;DHT22;34369;51.174;6.738;2023-02-15T10:43:58;8.00;53.50
48589;DHT22;34369;51.174;6.738;2023-02-15T10:47:11;8.10;53.40
48589;DHT22;34369;51.174;6.738;2023-02-15T10:50:17;8.10;53.10
48589;DHT22;34369;51.174;6.738;2023-02-15T10:53:10;8.20;53.20
48589;DHT22;34369;51.174;6.738;2023-02-15T10:55:55;8.20;54.00
48589;DHT22;34369;51.174;6.738;2023-02-15T10:58:42;8.30;54.40
48589;DHT22;34369;51.174;6.738;2023-02-15T11:01:27;8.40;54.30
48589;DHT22;34369;51.174;6.738;2023-02-15T11:04:21;8.50;54.20
48589;DHT22;34369;51.174;6.738;2023-02-15T11:07:14;8.70;53.90
48589;DHT22;34369;51.174;6.738;2023-02-15T11:09:51;8.90;53.60
48589;DHT22;34369;51.174;6.738;2023-02-15T11:12:28;9.20;54.30
48589;DHT22;34369;51.174;6.738;2023-02-15T11:15:10;9.40;54.30
48589;DHT22;34369;51.174;6.738;2023-02-15T11:17:50;9.70;52.90
48589;DHT22;34369;51.174;6.738;2023-02-15T11:20:28;9.90;52.80
48589;DHT22;34369;51.174;6.738;2023-02-15T11:23:02;10.00;52.60
48589;DHT22;34369;51.174;6.738;2023-02-15T11:25:35;10.20;52.40
48589;DHT22;34369;51.174;6.738;2023-02-15T11:28:13;10.40;52.30
48589;DHT22;34369;51.174;6.738;2023-02-15T11:30:55;10.50;51.30
48589;DHT22;34369;51.174;6.738;2023-02-15T11:33:33;10.60;50.90
48589;DHT22;34369;51.174;6.738;2023-02-15T11:36:11;10.60;51.00
48589;DHT22;34369;51.174;6.738;2023-02-15T11:38:50;10.60;50.80
48589;DHT22;34369;51.174;6.738;2023-02-15T11:41:31;10.60;50.60
48589;DHT22;34369;51.174;6.738;2023-02-15T11:44:11;10.60;50.40
48589;DHT22;34369;51.174;6.738;2023-02-15T11:46:47;10.60;50.30
48589;DHT22;34369;51.174;6.738;2023-02-15T11:49:23;10.60;50.40
48589;DHT22;34369;51.174;6.738;2023-02-15T11:52:05;10.70;50.50
48589;DHT22;34369;51.174;6.738;2023-02-15T11:54:41;10.80;50.50
48589;DHT22;34369;51.174;6.738;2023-02-15T11:57:17;10.70;49.90
48589;DHT22;34369;51.174;6.738;2023-02-15T11:59:57;10.70;50.00
48589;DHT22;34369;51.174;6.738;2023-02-15T12:02:36;10.70;50.20
48589;DHT22;34369;51.174;6.738;2023-02-15T12:05:12;10.80;51.00
48589;DHT22;34369;51.174;6.738;2023-02-15T12:07:50;10.80;50.90
48589;DHT22;34369;51.174;6.738;2023-02-15T12:10:25;11.00;50.40
48589;DHT22;34369;51.174;6.738;2023-02-15T12:13:10;11.10;50.50
48589;DHT22;34369;51.174;6.738;2023-02-15T12:15:46;11.20;50.90
48589;DHT22;34369;51.174;6.738;2023-02-15T12:18:36;11.40;50.50
48589;DHT22;34369;51.174;6.738;2023-02-15T12:21:11;11.60;50.30
48589;DHT22;34369;51.174;6.738;2023-02-15T12:23:48;11.80;49.80
48589;DHT22;34369;51.174;6.738;2023-02-15T12:26:26;12.00;49.10
48589;DHT22;34369;51.174;6.738;2023-02-15T12:29:00;12.20;49.20
48589;DHT22;34369;51.174;6.738;2023-02-15T12:31:37;12.40;49.20
48589;DHT22;34369;51.174;6.738;2023-02-15T12:34:17;12.50;48.60
48589;DHT22;34369;51.174;6.738;2023-02-15T12:36:55;12.70;48.80
48589;DHT22;34369;51.174;6.738;2023-02-15T12:39:31;12.90;48.40
48589;DHT22;34369;51.174;6.738;2023-02-15T12:42:13;13.00;48.20
48589;DHT22;34369;51.174;6.738;2023-02-15T12:44:57;13.10;47.90
48589;DHT22;34369;51.174;6.738;2023-02-15T12:47:31;13.20;47.50
48589;DHT22;34369;51.174;6.738;2023-02-15T12:50:12;13.30;47.80
48589;DHT22;34369;51.174;6.738;2023-02-15T12:52:50;13.40;47.10
48589;DHT22;34369;51.174;6.738;2023-02-15T12:55:24;13.60;47.60
48589;DHT22;34369;51.174;6.738;2023-02-15T12:58:07;13.70;47.60
48589;DHT22;34369;51.174;6.738;2023-02-15T13:00:40;13.90;46.40
48589;DHT22;34369;51.174;6.738;2023-02-15T13:03:17;14.00;46.60
48589;DHT22;34369;51.174;6.738;2023-02-15T13:05:54;14.00;45.50
48589;DHT22;34369;51.174;6.738;2023-02-15T13:08:27;13.90;45.50
48589;DHT22;34369;51.174;6.738;2023-02-15T13:11:04;13.90;46.10
48589;DHT22;34369;51.174;6.738;2023-02-15T13:13:53;13.70;45.90
48589;DHT22;34369;51.174;6.738;2023-02-15T13:16:31;13.50;45.30
48589;DHT22;34369;51.174;6.738;2023-02-15T13:19:09;13.40;46.20
48589;DHT22;34369;51.174;6.738;2023-02-15T13:21:47;13.30;46.00
48589;DHT22;34369;51.174;6.738;2023-02-15T13:24:22;13.10;46.20
48589;DHT22;34369;51.174;6.738;2023-02-15T13:26:57;13.00;46.40
48589;DHT22;34369;51.174;6.738;2023-02-15T13:29:33;13.00;46.80
48589;DHT22;34369;51.174;6.738;2023-02-15T13:32:11;12.80;46.80
48589;DHT22;34369;51.174;6.738;2023-02-15T13:34:47;12.80;47.20
48589;DHT22;34369;51.174;6.738;2023-02-15T13:37:28;12.80;46.90
48589;DHT22;34369;51.174;6.738;2023-02-15T13:40:14;12.70;47.10
48589;DHT22;34369;51.174;6.738;2023-02-15T13:42:55;12.70;47.60
48589;DHT22;34369;51.174;6.738;2023-02-15T13:45:36;12.70;47.60
48589;DHT22;34369;51.174;6.738;2023-02-15T13:48:19;12.80;47.20
48589;DHT22;34369;51.174;6.738;2023-02-15T13:51:07;12.90;47.20
48589;DHT22;34369;51.174;6.738;2023-02-15T13:54:04;12.90;47.50
48589;DHT22;34369;51.174;6.738;2023-02-15T13:56:53;13.00;47.80
48589;DHT22;34369;51.174;6.738;2023-02-15T13:59:51;13.10;47.70
48589;DHT22;34369;51.174;6.738;2023-02-15T14:02:49;13.30;47.30
48589;DHT22;34369;51.174;6.738;2023-02-15T14:06:00;13.50;47.10
48589;DHT22;34369;51.174;6.738;2023-02-15T14:08:53;13.90;47.50
48589;DHT22;34369;51.174;6.738;2023-02-15T14:11:34;14.20;47.20
48589;DHT22;34369;51.174;6.738;2023-02-15T14:14:22;14.50;47.30
48589;DHT22;34369;51.174;6.738;2023-02-15T14:17:09;14.90;46.10
48589;DHT22;34369;51.174;6.738;2023-02-15T14:19:50;15.10;45.70
48589;DHT22;34369;51.174;6.738;2023-02-15T14:22:29;15.20;45.20
48589;DHT22;34369;51.174;6.738;2023-02-15T14:25:16;15.30;44.50
48589;DHT22;34369;51.174;6.738;2023-02-15T14:27:56;15.20;44.10
48589;DHT22;34369;51.174;6.738;2023-02-15T14:30:36;15.10;44.00
48589;DHT22;34369;51.174;6.738;2023-02-15T14:33:29;15.00;44.30
48589;DHT22;34369;51.174;6.738;2023-02-15T14:36:06;14.90;44.10
48589;DHT22;34369;51.174;6.738;2023-02-15T14:38:50;14.70;44.20
48589;DHT22;34369;51.174;6.738;2023-02-15T14:41:36;14.60;43.80
48589;DHT22;34369;51.174;6.738;2023-02-15T14:44:15;14.50;43.90
48589;DHT22;34369;51.174;6.738;2023-02-15T14:46:55;14.30;44.00
48589;DHT22;34369;51.174;6.738;2023-02-15T14:49:32;14.20;44.40
48589;DHT22;34369;51.174;6.738;2023-02-15T14:52:06;14.10;44.50
48589;DHT22;34369;51.174;6.738;2023-02-15T14:55:00;14.00;44.70
48589;DHT22;34369;51.174;6.738;2023-02-15T14:57:34;13.90;44.60
48589;DHT22;34369;51.174;6.738;2023-02-15T15:00:28;13.70;45.00
48589;DHT22;34369;51.174;6.738;2023-02-15T15:03:11;13.60;45.00
48589;DHT22;34369;51.174;6.738;2023-02-15T15:05:52;13.50;45.00
48589;DHT22;34369;51.174;6.738;2023-02-15T15:08:29;13.50;45.20
48589;DHT22;34369;51.174;6.738;2023-02-15T15:11:39;13.30;45.10
48589;DHT22;34369;51.174;6.738;2023-02-15T15:14:40;13.30;45.00
48589;DHT22;34369;51.174;6.738;2023-02-15T15:17:51;13.10;45.30
48589;DHT22;34369;51.174;6.738;2023-02-15T15:20:41;13.10;45.40
48589;DHT22;34369;51.174;6.738;2023-02-15T15:23:49;13.00;45.70
48589;DHT22;34369;51.174;6.738;2023-02-15T15:26:27;12.90;45.80
48589;DHT22;34369;51.174;6.738;2023-02-15T15:29:04;12.80;46.10
48589;DHT22;34369;51.174;6.738;2023-02-15T15:31:43;12.70;45.80
48589;DHT22;34369;51.174;6.738;2023-02-15T15:34:44;12.60;45.90
48589;DHT22;34369;51.174;6.738;2023-02-15T15:37:59;12.50;46.10
48589;DHT22;34369;51.174;6.738;2023-02-15T15:41:15;12.40;46.10
48589;DHT22;34369;51.174;6.738;2023-02-15T15:47:27;12.20;46.30
48589;DHT22;34369;51.174;6.738;2023-02-15T15:50:12;12.20;46.60
48589;DHT22;34369;51.174;6.738;2023-02-15T15:52:48;12.10;46.70
48589;DHT22;34369;51.174;6.738;2023-02-15T15:55:24;12.00;46.80
48589;DHT22;34369;51.174;6.738;2023-02-15T15:58:03;11.90;47.00
48589;DHT22;34369;51.174;6.738;2023-02-15T16:00:39;11.90;46.90
48589;DHT22;34369;51.174;6.738;2023-02-15T16:03:21;11.80;47.10
48589;DHT22;34369;51.174;6.738;2023-02-15T16:05:54;11.70;47.20
48589;DHT22;34369;51.174;6.738;2023-02-15T16:08:32;11.60;47.40
48589;DHT22;34369;51.174;6.738;2023-02-15T16:11:12;11.60;47.50
48589;DHT22;34369;51.174;6.738;2023-02-15T16:13:47;11.50;47.60
48589;DHT22;34369;51.174;6.738;2023-02-15T16:16:25;11.40;47.70
48589;DHT22;34369;51.174;6.738;2023-02-15T16:19:00;11.40;47.80
48589;DHT22;34369;51.174;6.738;2023-02-15T16:21:35;11.30;47.90
48589;DHT22;34369;51.174;6.738;2023-02-15T16:24:30;11.20;48.00
48589;DHT22;34369;51.174;6.738;2023-02-15T16:27:35;11.00;48.10
48589;DHT22;34369;51.174;6.738;2023-02-15T16:30:24;11.00;48.20
48589;DHT22;34369;51.174;6.738;2023-02-15T16:33:05;10.90;48.30
48589;DHT22;34369;51.174;6.738;2023-02-15T16:35:52;10.80;48.40
48589;DHT22;34369;51.174;6.738;2023-02-15T16:38:30;10.70;48.50
48589;DHT22;34369;51.174;6.738;2023-02-15T16:41:20;10.60;48.70
48589;DHT22;34369;51.174;6.738;2023-02-15T16:43:54;10.60;48.70
48589;DHT22;34369;51.174;6.738;2023-02-15T16:46:30;10.50;48.90
48589;DHT22;34369;51.174;6.738;2023-02-15T16:49:06;10.30;49.10
48589;DHT22;34369;51.174;6.738;2023-02-15T16:51:55;10.20;49.30
48589;DHT22;34369;51.174;6.738;2023-02-15T16:54:29;10.20;49.60
48589;DHT22;34369;51.174;6.738;2023-02-15T16:57:02;10.00;49.60
48589;DHT22;34369;51.174;6.738;2023-02-15T16:59:38;10.00;49.70
48589;DHT22;34369;51.174;6.738;2023-02-15T17:02:16;9.90;49.80
48589;DHT22;34369;51.174;6.738;2023-02-15T17:05:05;9.80;50.00
48589;DHT22;34369;51.174;6.738;2023-02-15T17:08:03;9.70;50.10